Home   Weather   Benin   Past weeks
Flag for Turkey

Past Weather in Benin, Turkey — Yesterday and Last 2 Weeks

Currently: 73 °F. Clear. (Weather station: Batman Airport, Turkey). See more current weather

Past Weather in Benin — Graph

°F

Benin Temperature Yesterday

Maximum temperature yesterday: 93 °F (at 1:20 pm)
Minimum temperature yesterday: 54 °F (at 5:20 am)
Average temperature yesterday: 75 °F

High & Low Weather Summary for the Past Weeks

 TemperatureHumidityPressure
High100 °F (Sep 10, 2:50 pm)77% (Sep 18, 5:50 am)29.98 "Hg (Sep 18, 5:50 am)
Low52 °F (Sep 22, 5:50 am)10% (Sep 9, 2:50 pm)27.94 "Hg (Sep 7, 9:20 pm)
Average76 °F36%29.81 "Hg
* Reported Sep 7 8:20 pm — Sep 22 8:50 pm, Benin. Weather by CustomWeather, © 2021

Note: Actual official high and low records may vary slightly from our data, if they occured in-between our weather recording intervals... More about our weather records

Benin Weather History for the Previous 24 Hours

Scroll right to see more
 ConditionsComfort  
Time TempWeatherWind HumidityBarometerVisibility
8:50 pm
Wed, Sep 22
77 °FClear.9 mph28%29.65 "Hg10 mi
8:20 pm77 °FPassing clouds.9 mph30%29.65 "HgN/A
7:50 pm79 °FPassing clouds.9 mph26%29.65 "HgN/A
7:20 pm81 °FPassing clouds.9 mph24%29.62 "HgN/A
6:50 pm81 °FPassing clouds.2 mph26%29.62 "HgN/A
6:20 pm82 °FPassing clouds.6 mph23%29.62 "HgN/A
5:50 pm84 °FScattered clouds.7 mph20%29.62 "HgN/A
5:20 pm90 °FScattered clouds.8 mph17%29.62 "HgN/A
4:50 pm91 °FScattered clouds.7 mph16%29.62 "HgN/A
3:50 pm91 °FPassing clouds.7 mph16%29.62 "HgN/A
3:20 pm93 °FPassing clouds.7 mph15%29.65 "HgN/A
2:50 pm93 °FPassing clouds.6 mph14%29.65 "HgN/A
2:20 pm93 °FPassing clouds.6 mph14%29.65 "HgN/A
1:50 pm91 °FPassing clouds.6 mph15%29.68 "HgN/A
1:20 pm91 °FSunny.5 mph15%29.68 "Hg10 mi
12:50 pm90 °FSunny.3 mph16%29.71 "Hg10 mi
12:20 pm88 °FPassing clouds.3 mph18%29.71 "HgN/A
11:50 am86 °FSunny.3 mph19%29.71 "Hg10 mi
11:20 am82 °FPassing clouds.5 mph23%29.74 "HgN/A
10:50 am81 °FSunny.5 mph24%29.74 "Hg10 mi
10:20 am79 °FPassing clouds.5 mph26%29.77 "HgN/A
9:50 am77 °FSunny.3 mph26%29.77 "Hg10 mi
9:20 am75 °FSunny.2 mph27%29.77 "Hg10 mi
8:50 am73 °FSunny.3 mph27%29.77 "Hg10 mi
8:20 am70 °FPassing clouds.3 mph31%29.77 "HgN/A
7:50 am66 °FPassing clouds.3 mph32%29.77 "HgN/A
7:20 am61 °FSunny.5 mph42%29.77 "Hg10 mi
6:50 am57 °FSunny.2 mph51%29.77 "Hg10 mi
6:20 am54 °FSunny.3 mph51%29.77 "Hg10 mi
5:50 am52 °FClear.6 mph62%29.77 "Hg10 mi
5:20 am55 °FClear.5 mph55%29.77 "Hg10 mi
4:50 am54 °FClear.7 mph54%29.77 "Hg10 mi
4:20 am57 °FClear.5 mph44%29.77 "Hg10 mi
3:50 am57 °FClear.7 mph44%29.77 "Hg10 mi
3:20 am55 °FClear.7 mph51%29.77 "Hg10 mi
2:50 am55 °FClear.6 mph55%29.77 "Hg10 mi
2:20 am55 °FClear.9 mph55%29.77 "Hg10 mi
1:50 am57 °FClear.7 mph51%29.77 "Hg10 mi
1:20 am61 °FPassing clouds.5 mph45%29.77 "HgN/A
12:50 am64 °FClear.2 mph37%29.77 "Hg10 mi
12:20 am68 °FClear.3 mph33%29.80 "Hg10 mi
11:50 pm
Tue, Sep 21
66 °FClear.2 mph35%29.80 "Hg10 mi
11:20 pm68 °FClear.2 mph33%29.80 "Hg10 mi
10:50 pm70 °FClear.6 mph31%29.80 "Hg10 mi
10:20 pm70 °FClear.6 mph31%29.80 "Hg10 mi
Weather by CustomWeather, © 2021

See weather overview